Washington Boro, PA (17582)

1:52 AM EDT on September 05, 2015 (GMT -0400)
Battery Ridge | | Change Station
CLOSE
Current Station
Personal Weather Station
Location: Mountville, PA
Elevation: 525 ft
Nearby Weather Stations

Elev 525 ft 40.05 °N, 76.42 °W | Updated 37 seconds ago

Overcast
Overcast
71.6 °F
Feels Like 71 °F
N
0.0
Wind Variable Wind from WSW

Today
High -- | Low -- °F
--% Chance of Precip.
Yesterday
High -- | Low -- °F
Precip. -- in
6:37 AM 7:31 PM
Waning Gibbous, 52% visible
Pressure 30.19 in
Visibility 8.0 miles
Clouds Overcast 2100 ft
Heat Index 71 °F
Dew Point 66 °F
Humidity 83%
Rainfall 0.00 in
Snow Depth Not available.
UV 0 out of 12
Pollen 7.80 out of 12
Air Quality Not available.
Flu Activity Not available.
METAR KLNS 050453Z AUTO 09004KT 8SM OVC021 22/19 A3019 RMK AO2 SLP221 T02170189 403220206
Pressure 30.19 in
Visibility 8.0 miles
Clouds Overcast 2100 ft
Heat Index 71 °F
Dew Point 66 °F
Humidity 83%
Rainfall 0.00 in
Snow Depth Not available.
UV 0 out of 12
Pollen 7.80 out of 12
Air Quality Not available.
Flu Activity Not available.
METAR KLNS 050453Z AUTO 09004KT 8SM OVC021 22/19 A3019 RMK AO2 SLP221 T02170189 403220206

10-Day Weather Forecast

×

Almanac

Astronomy

Sep. 05, 2015 Rise Set
Actual Time
Civil Twilight
Nautical Twilight
Astronomical Twilight
Moon
Length of Visible Light
Length of Day
Tomorrow will be .
, % of the Moon is Illuminated

Today's Extremes

State Highs State Lows

Community

WunderPhotos

Upload Photos

1,852,428 photos uploaded!

WunderBlogs® & News

Nearby

Air Quality

  Air Quality AQ Index Pollutant
Not available.

Snow Depth

Station Depth Elevation

Earthquake Activity

City Distance Mag. Time & Date
Minimum magnitude displayed is 2.5.

Coastal Water Temperatures

Place Temperature

Stations

Nearby Weather Stations

Station Location Temp. Windchill Dew Point Humidity Wind Precip. Elev Updated Type